createdAt,value
2023-03-11T00:00:32.139Z,90.20
2023-03-11T00:03:01.441Z,90.10
2023-03-11T00:05:35.102Z,90.00
2023-03-11T00:08:03.042Z,90.00
2023-03-11T00:10:35.592Z,90.00
2023-03-11T00:13:03.469Z,90.10
2023-03-11T00:15:30.718Z,90.00
2023-03-11T00:17:57.930Z,90.00
2023-03-11T00:20:36.508Z,89.70
2023-03-11T00:23:04.890Z,89.70
2023-03-11T00:25:32.846Z,89.90
2023-03-11T00:27:59.888Z,90.00
2023-03-11T00:30:27.744Z,90.00
2023-03-11T00:32:56.535Z,90.00
2023-03-11T00:35:26.759Z,89.90
2023-03-11T00:37:56.045Z,89.80
2023-03-11T00:40:25.497Z,90.00
2023-03-11T00:42:52.780Z,90.00
2023-03-11T00:45:21.045Z,90.00
2023-03-11T00:47:47.802Z,90.00
2023-03-11T00:50:18.161Z,89.90
2023-03-11T00:52:46.741Z,89.80
2023-03-11T00:55:15.719Z,89.80
2023-03-11T00:57:43.023Z,89.60
2023-03-11T01:00:17.148Z,89.40
2023-03-11T01:02:44.186Z,89.30
2023-03-11T01:05:11.326Z,89.20
2023-03-11T01:07:38.044Z,89.50
2023-03-11T01:10:06.670Z,89.50
2023-03-11T01:12:33.393Z,89.50
2023-03-11T01:15:00.854Z,89.10
2023-03-11T01:17:27.643Z,89.10
2023-03-11T01:19:54.314Z,89.40
2023-03-11T01:22:20.997Z,89.20
2023-03-11T01:24:47.696Z,89.10
2023-03-11T01:27:14.349Z,89.00
2023-03-11T01:29:40.952Z,89.00
2023-03-11T01:32:07.774Z,89.20
2023-03-11T01:34:36.046Z,89.10
2023-03-11T01:37:05.634Z,89.00
2023-03-11T01:39:32.228Z,89.20
2023-03-11T01:41:58.878Z,89.10
2023-03-11T01:44:25.704Z,89.20
2023-03-11T01:46:52.410Z,89.30
2023-03-11T01:49:20.386Z,89.40
2023-03-11T01:51:51.960Z,89.40
2023-03-11T01:54:23.598Z,89.30
2023-03-11T01:56:51.455Z,90.10
2023-03-11T01:59:22.282Z,89.30
2023-03-11T02:02:23.460Z,89.20
2023-03-11T02:04:51.197Z,88.90
2023-03-11T02:07:18.140Z,89.10
2023-03-11T02:09:44.907Z,88.90
2023-03-11T02:12:14.480Z,88.80
2023-03-11T02:14:44.981Z,88.80
2023-03-11T02:17:13.289Z,89.10
2023-03-11T02:19:59.121Z,89.30
2023-03-11T02:22:28.330Z,89.30
2023-03-11T02:25:31.383Z,89.30
2023-03-11T02:27:59.661Z,89.20
2023-03-11T02:30:27.748Z,88.90
2023-03-11T02:32:55.991Z,88.90
2023-03-11T02:35:23.077Z,88.70
2023-03-11T02:37:52.211Z,88.50
2023-03-11T02:40:25.779Z,88.60
2023-03-11T02:42:56.144Z,88.80
2023-03-11T02:45:25.431Z,88.60
2023-03-11T02:47:56.807Z,88.80
2023-03-11T02:50:25.555Z,88.50
2023-03-11T02:52:52.535Z,88.70
2023-03-11T02:55:20.590Z,88.80
2023-03-11T02:57:48.330Z,88.90
2023-03-11T03:00:17.804Z,88.90
2023-03-11T03:02:45.849Z,88.80
2023-03-11T03:05:13.481Z,88.90
2023-03-11T03:07:40.322Z,88.70
2023-03-11T03:10:08.631Z,89.00
2023-03-11T03:12:35.249Z,88.50
2023-03-11T03:15:01.905Z,88.40
2023-03-11T03:17:28.623Z,88.60
2023-03-11T03:19:55.295Z,88.40
2023-03-11T03:22:21.977Z,88.40
2023-03-11T03:24:48.637Z,88.40
2023-03-11T03:27:15.288Z,88.10
2023-03-11T03:29:41.900Z,88.00
2023-03-11T03:32:08.657Z,88.10
2023-03-11T03:34:35.350Z,88.10
2023-03-11T03:37:01.941Z,87.90
2023-03-11T03:39:30.587Z,87.80
2023-03-11T03:41:57.417Z,87.90
2023-03-11T03:44:24.183Z,87.90
2023-03-11T03:46:50.868Z,88.10
2023-03-11T03:49:17.547Z,88.10
2023-03-11T03:51:44.174Z,88.00
2023-03-11T03:54:10.830Z,88.10
2023-03-11T03:56:37.479Z,88.10
2023-03-11T03:59:04.207Z,88.20
2023-03-11T04:01:30.897Z,88.40
2023-03-11T04:03:57.532Z,88.00
2023-03-11T04:06:26.868Z,87.80
2023-03-11T04:08:54.545Z,88.20
2023-03-11T04:11:21.817Z,88.00
2023-03-11T04:13:48.857Z,88.10
2023-03-11T04:16:23.733Z,88.10
2023-03-11T04:18:50.801Z,88.20
2023-03-11T04:21:17.451Z,87.90
2023-03-11T04:23:44.378Z,88.10
2023-03-11T04:26:11.080Z,88.10
2023-03-11T04:28:37.687Z,87.90
2023-03-11T04:31:04.544Z,87.90
2023-03-11T04:33:31.415Z,87.70
2023-03-11T04:35:58.649Z,87.90
2023-03-11T04:38:25.533Z,87.90
2023-03-11T04:40:52.199Z,88.00
2023-03-11T04:43:18.835Z,87.80
2023-03-11T04:45:45.497Z,88.00
2023-03-11T04:48:12.108Z,88.10
2023-03-11T04:50:38.758Z,87.80
2023-03-11T04:53:05.517Z,87.70
2023-03-11T04:55:33.328Z,87.60
2023-03-11T04:58:00.102Z,87.60
2023-03-11T05:00:27.015Z,87.80
2023-03-11T05:02:53.797Z,87.80
2023-03-11T05:05:20.612Z,87.60
2023-03-11T05:07:47.985Z,87.60
2023-03-11T05:10:15.265Z,87.50
2023-03-11T05:12:41.953Z,87.20
2023-03-11T05:15:08.742Z,87.30
2023-03-11T05:17:35.390Z,87.30
2023-03-11T05:20:02.101Z,87.50
2023-03-11T05:22:28.772Z,87.40
2023-03-11T05:24:55.383Z,87.30
2023-03-11T05:27:21.987Z,87.00
2023-03-11T05:29:48.587Z,87.20
2023-03-11T05:32:15.460Z,87.10
2023-03-11T05:34:42.364Z,87.00
2023-03-11T05:37:09.280Z,87.30
2023-03-11T05:39:37.725Z,87.10
2023-03-11T05:42:05.737Z,87.10
2023-03-11T05:44:33.548Z,87.20
2023-03-11T05:47:00.865Z,88.20
2023-03-11T05:49:27.802Z,87.00
2023-03-11T05:51:56.183Z,87.00
2023-03-11T05:54:24.781Z,87.20
2023-03-11T05:56:51.383Z,87.10
2023-03-11T05:59:18.174Z,86.70
2023-03-11T06:01:45.125Z,86.80
2023-03-11T06:04:12.430Z,86.80
2023-03-11T06:06:41.136Z,86.90
2023-03-11T06:09:11.286Z,87.00
2023-03-11T06:11:38.088Z,87.00
2023-03-11T06:14:04.888Z,86.80
2023-03-11T06:16:31.559Z,86.80
2023-03-11T06:19:00.614Z,87.00
2023-03-11T06:21:27.280Z,86.90
2023-03-11T06:23:53.932Z,86.90
2023-03-11T06:26:21.866Z,87.90
2023-03-11T06:28:49.683Z,86.70
2023-03-11T06:31:22.761Z,86.80
2023-03-11T06:33:49.474Z,86.80
2023-03-11T06:36:17.608Z,86.90
2023-03-11T06:38:46.086Z,86.90
2023-03-11T06:41:13.214Z,86.90
2023-03-11T06:43:39.970Z,86.80
2023-03-11T06:46:12.328Z,86.30
2023-03-11T06:48:39.195Z,86.10
2023-03-11T06:51:05.897Z,86.20
2023-03-11T06:53:32.907Z,86.20
2023-03-11T06:56:07.839Z,86.20
2023-03-11T06:58:36.595Z,86.20
2023-03-11T07:01:15.026Z,86.10
2023-03-11T07:03:43.068Z,85.90
2023-03-11T07:06:24.537Z,85.80
2023-03-11T07:08:52.861Z,85.70
2023-03-11T07:11:23.547Z,85.60
2023-03-11T07:13:50.836Z,86.00
2023-03-11T07:16:20.666Z,85.90
2023-03-11T07:18:48.881Z,86.00
2023-03-11T07:21:17.803Z,86.10
2023-03-11T07:23:44.848Z,86.30
2023-03-11T07:26:13.786Z,86.20
2023-03-11T07:28:41.758Z,86.20
2023-03-11T07:31:14.284Z,86.20
2023-03-11T07:33:41.220Z,86.70
2023-03-11T07:36:10.468Z,86.90
2023-03-11T07:38:37.960Z,87.10
2023-03-11T07:41:04.818Z,87.20
2023-03-11T07:43:31.808Z,87.40
2023-03-11T07:46:07.736Z,87.60
2023-03-11T07:48:35.104Z,87.90
2023-03-11T07:51:03.426Z,88.20
2023-03-11T07:53:30.121Z,88.30
2023-03-11T07:55:58.762Z,88.30
2023-03-11T07:58:26.268Z,88.40
2023-03-11T08:00:54.534Z,88.40
2023-03-11T08:03:21.279Z,88.40
2023-03-11T08:05:47.971Z,88.20
2023-03-11T08:08:14.627Z,88.10
2023-03-11T08:10:41.355Z,88.40
2023-03-11T08:13:08.022Z,88.70
2023-03-11T08:15:34.695Z,88.90
2023-03-11T08:18:01.479Z,88.80
2023-03-11T08:20:28.218Z,88.80
2023-03-11T08:22:58.401Z,88.70
2023-03-11T08:25:25.526Z,88.50
2023-03-11T08:27:52.244Z,88.40
2023-03-11T08:30:19.040Z,88.30
2023-03-11T08:32:45.650Z,88.10
2023-03-11T08:35:12.377Z,87.90
2023-03-11T08:37:39.186Z,87.60
2023-03-11T08:40:06.369Z,87.40
2023-03-11T08:42:33.045Z,86.30
2023-03-11T08:44:59.696Z,86.20
2023-03-11T08:47:26.464Z,85.70
2023-03-11T08:49:53.113Z,85.50
2023-03-11T08:52:19.771Z,85.50
2023-03-11T08:54:46.368Z,84.00
2023-03-11T08:57:13.072Z,84.70
2023-03-11T08:59:39.749Z,83.40
2023-03-11T09:02:06.342Z,81.10
2023-03-11T09:04:32.994Z,82.80
2023-03-11T09:06:59.625Z,82.30
2023-03-11T09:09:26.274Z,82.60
2023-03-11T09:11:52.872Z,82.20
2023-03-11T09:14:19.599Z,82.60
2023-03-11T09:16:46.295Z,82.70
2023-03-11T09:19:12.949Z,82.10
2023-03-11T09:21:39.738Z,82.70
2023-03-11T09:24:07.262Z,82.30
2023-03-11T09:26:34.001Z,80.70
2023-03-11T09:29:00.623Z,81.40
2023-03-11T09:31:27.277Z,82.00
2023-03-11T09:33:55.541Z,81.60
2023-03-11T09:36:23.048Z,80.80
2023-03-11T09:38:49.749Z,81.10
2023-03-11T09:41:57.113Z,81.20
2023-03-11T09:44:45.990Z,81.30
2023-03-11T09:47:40.065Z,82.00
2023-03-11T09:50:18.229Z,80.90
2023-03-11T09:52:55.507Z,79.30
2023-03-11T09:55:34.494Z,77.90
2023-03-11T09:58:07.133Z,76.30
2023-03-11T10:00:34.000Z,76.30
2023-03-11T10:03:02.216Z,77.80
2023-03-11T10:05:30.193Z,77.70
2023-03-11T10:08:04.969Z,72.80
2023-03-11T10:10:40.482Z,74.00
2023-03-11T10:13:13.375Z,72.70
2023-03-11T10:16:00.032Z,72.80
2023-03-11T10:18:32.763Z,72.30
2023-03-11T10:21:17.679Z,72.60
2023-03-11T10:24:14.359Z,72.70
2023-03-11T10:26:51.770Z,72.80
2023-03-11T10:29:18.799Z,67.60
2023-03-11T10:32:02.412Z,71.20
2023-03-11T10:34:32.929Z,72.40
2023-03-11T10:37:04.915Z,73.10
2023-03-11T10:39:33.013Z,70.80
2023-03-11T10:42:05.551Z,71.00
2023-03-11T10:44:40.350Z,71.00
2023-03-11T10:47:15.516Z,70.10
2023-03-11T10:49:42.191Z,71.20
2023-03-11T10:52:08.880Z,66.20
2023-03-11T10:54:46.228Z,68.70
2023-03-11T10:57:25.601Z,69.60
2023-03-11T10:59:57.209Z,68.50
2023-03-11T11:02:28.517Z,66.30
2023-03-11T11:05:23.118Z,61.70
2023-03-11T11:07:53.112Z,67.40
2023-03-11T11:10:24.947Z,68.10
2023-03-11T11:13:03.871Z,65.90
2023-03-11T11:15:39.736Z,64.30
2023-03-11T11:18:21.873Z,59.80
2023-03-11T11:21:00.914Z,63.50
2023-03-11T11:23:40.340Z,63.70
2023-03-11T11:26:24.552Z,58.20
2023-03-11T11:29:07.738Z,56.20
2023-03-11T11:31:37.156Z,63.60
2023-03-11T11:34:04.135Z,63.60
2023-03-11T11:36:34.050Z,63.70
2023-03-11T11:39:05.018Z,61.70
2023-03-11T11:41:35.326Z,62.30
2023-03-11T11:44:05.974Z,62.20
2023-03-11T11:46:43.262Z,62.70
2023-03-11T11:49:22.370Z,58.90
2023-03-11T11:52:16.978Z,61.10
2023-03-11T11:54:43.610Z,60.30
2023-03-11T11:57:16.435Z,57.80
2023-03-11T11:59:44.276Z,58.50
2023-03-11T12:02:19.709Z,56.10
2023-03-11T12:05:09.733Z,56.90
2023-03-11T12:07:54.074Z,54.40
2023-03-11T12:10:28.853Z,58.70
2023-03-11T12:13:25.043Z,55.30
2023-03-11T12:16:19.709Z,58.20
2023-03-11T12:19:10.226Z,54.70
2023-03-11T12:22:03.973Z,57.30
2023-03-11T12:25:15.199Z,53.40
2023-03-11T12:27:49.973Z,56.50
2023-03-11T12:30:38.919Z,54.50
2023-03-11T12:33:11.503Z,53.50
2023-03-11T12:35:38.339Z,55.90
2023-03-11T12:38:33.217Z,56.90
2023-03-11T12:41:01.940Z,54.50
2023-03-11T12:43:48.527Z,53.10
2023-03-11T12:46:17.887Z,51.20
2023-03-11T12:48:52.204Z,54.20
2023-03-11T12:51:39.068Z,53.30
2023-03-11T12:54:33.286Z,53.70
2023-03-11T12:57:32.656Z,52.30
2023-03-11T13:00:35.153Z,50.20
2023-03-11T13:03:32.125Z,45.50
2023-03-11T13:06:19.886Z,49.30
2023-03-11T13:08:49.405Z,51.20
2023-03-11T13:11:34.410Z,49.70
2023-03-11T13:14:23.652Z,49.70
2023-03-11T13:16:50.659Z,50.00
2023-03-11T13:19:26.311Z,51.20
2023-03-11T13:21:54.455Z,48.50
2023-03-11T13:24:22.007Z,48.90
2023-03-11T13:26:50.766Z,48.10
2023-03-11T13:29:41.966Z,51.00
2023-03-11T13:32:46.304Z,49.70
2023-03-11T13:35:40.132Z,49.20
2023-03-11T13:38:22.762Z,49.20
2023-03-11T13:40:51.682Z,47.90
2023-03-11T13:43:22.705Z,45.50
2023-03-11T13:46:03.727Z,47.10
2023-03-11T13:48:40.566Z,46.00
2023-03-11T13:51:20.513Z,48.10
2023-03-11T13:54:20.074Z,47.50
2023-03-11T13:56:53.942Z,45.00
2023-03-11T13:59:24.884Z,46.70
2023-03-11T14:02:01.429Z,47.10
2023-03-11T14:04:31.607Z,46.60
2023-03-11T14:06:59.275Z,45.30
2023-03-11T14:09:28.251Z,47.40
2023-03-11T14:12:03.236Z,47.30
2023-03-11T14:15:00.733Z,46.80
2023-03-11T14:17:27.603Z,46.40
2023-03-11T14:20:12.669Z,46.40
2023-03-11T14:22:39.500Z,47.70
2023-03-11T14:25:09.921Z,47.40
2023-03-11T14:27:39.744Z,47.10
2023-03-11T14:30:06.953Z,46.30
2023-03-11T14:32:35.591Z,46.80
2023-03-11T14:35:17.106Z,45.90
2023-03-11T14:37:43.708Z,46.40
2023-03-11T14:40:32.338Z,47.60
2023-03-11T14:43:05.370Z,47.80
2023-03-11T14:45:36.283Z,47.70
2023-03-11T14:48:09.928Z,48.30
2023-03-11T14:50:36.796Z,47.40
2023-03-11T14:53:06.099Z,44.80
2023-03-11T14:55:36.314Z,46.50
2023-03-11T14:58:18.888Z,46.90
2023-03-11T15:00:51.099Z,46.00
2023-03-11T15:03:23.945Z,45.60
2023-03-11T15:06:03.092Z,47.00
2023-03-11T15:08:35.606Z,45.80
2023-03-11T15:11:03.928Z,46.80
2023-03-11T15:13:30.875Z,46.10
2023-03-11T15:15:59.194Z,45.20
2023-03-11T15:18:32.081Z,45.60
2023-03-11T15:21:12.690Z,47.40
2023-03-11T15:23:44.874Z,46.20
2023-03-11T15:26:20.298Z,46.70
2023-03-11T15:28:54.414Z,46.00
2023-03-11T15:31:21.025Z,45.00
2023-03-11T15:33:48.989Z,45.00
2023-03-11T15:36:30.723Z,46.00
2023-03-11T15:39:29.223Z,45.60
2023-03-11T15:42:05.812Z,45.20
2023-03-11T15:44:36.288Z,45.50
2023-03-11T15:47:04.195Z,45.00
2023-03-11T15:49:30.858Z,45.10
2023-03-11T15:52:01.997Z,45.20
2023-03-11T15:54:28.990Z,45.30
2023-03-11T15:56:58.527Z,44.80
2023-03-11T15:59:26.154Z,45.80
2023-03-11T16:01:52.844Z,46.10
2023-03-11T16:04:20.934Z,46.10
2023-03-11T16:06:56.647Z,46.00
2023-03-11T16:09:34.123Z,45.50
2023-03-11T16:12:02.023Z,46.10
2023-03-11T16:14:28.709Z,46.30
2023-03-11T16:16:55.441Z,46.20
2023-03-11T16:19:22.149Z,45.80
2023-03-11T16:21:50.229Z,45.20
2023-03-11T16:24:20.767Z,45.50
2023-03-11T16:26:47.521Z,45.70
2023-03-11T16:29:19.303Z,45.30
2023-03-11T16:31:46.784Z,45.70
2023-03-11T16:34:13.446Z,45.80
2023-03-11T16:36:40.192Z,45.30
2023-03-11T16:39:06.883Z,46.20
2023-03-11T16:41:44.361Z,46.90
2023-03-11T16:44:11.685Z,46.60
2023-03-11T16:46:38.623Z,46.60
2023-03-11T16:49:05.421Z,46.50
2023-03-11T16:51:32.433Z,46.80
2023-03-11T16:53:59.715Z,46.10
2023-03-11T16:56:26.411Z,47.20
2023-03-11T16:58:53.127Z,47.20
2023-03-11T17:01:21.573Z,47.30
2023-03-11T17:03:50.824Z,47.60
2023-03-11T17:06:17.872Z,48.30
2023-03-11T17:08:49.125Z,48.70
2023-03-11T17:11:18.283Z,48.70
2023-03-11T17:13:45.064Z,49.50
2023-03-11T17:16:12.162Z,49.80
2023-03-11T17:18:39.083Z,50.00
2023-03-11T17:21:10.879Z,50.00
2023-03-11T17:23:37.657Z,50.60
2023-03-11T17:26:12.355Z,51.30
2023-03-11T17:28:42.607Z,51.40
2023-03-11T17:31:14.256Z,51.80
2023-03-11T17:33:41.217Z,52.60
2023-03-11T17:36:11.139Z,52.80
2023-03-11T17:38:37.799Z,53.10
2023-03-11T17:41:09.385Z,53.70
2023-03-11T17:43:36.209Z,54.10
2023-03-11T17:46:06.410Z,54.80
2023-03-11T17:48:33.060Z,55.50
2023-03-11T17:51:05.018Z,55.90
2023-03-11T17:53:33.446Z,56.40
2023-03-11T17:56:00.276Z,56.40
2023-03-11T17:58:26.961Z,57.00
2023-03-11T18:00:53.662Z,58.00
2023-03-11T18:03:20.324Z,58.30
2023-03-11T18:05:57.908Z,58.50
2023-03-11T18:08:24.957Z,58.50
2023-03-11T18:10:53.003Z,58.30
2023-03-11T18:13:20.703Z,59.00
2023-03-11T18:16:12.540Z,59.70
2023-03-11T18:18:41.640Z,60.10
2023-03-11T18:21:17.451Z,60.40
2023-03-11T18:23:44.744Z,60.50
2023-03-11T18:26:14.355Z,60.80
2023-03-11T18:28:41.757Z,61.20
2023-03-11T18:31:17.009Z,61.50
2023-03-11T18:33:48.092Z,61.70
2023-03-11T18:36:20.834Z,62.10
2023-03-11T18:38:48.982Z,62.20
2023-03-11T18:41:16.093Z,62.70
2023-03-11T18:43:42.749Z,63.00
2023-03-11T18:46:11.516Z,63.40
2023-03-11T18:48:38.636Z,63.50
2023-03-11T18:51:07.016Z,63.80
2023-03-11T18:53:34.208Z,64.10
2023-03-11T18:56:13.514Z,64.30
2023-03-11T18:58:40.179Z,64.50
2023-03-11T19:01:15.116Z,64.70
2023-03-11T19:03:43.185Z,65.00
2023-03-11T19:06:11.494Z,65.00
2023-03-11T19:08:38.570Z,65.20
2023-03-11T19:11:13.247Z,65.30
2023-03-11T19:13:46.940Z,65.60
2023-03-11T19:16:16.750Z,65.60
2023-03-11T19:18:43.941Z,65.80
2023-03-11T19:21:12.219Z,66.00
2023-03-11T19:23:38.968Z,66.40
2023-03-11T19:26:06.589Z,66.70
2023-03-11T19:28:33.309Z,66.70
2023-03-11T19:31:00.527Z,66.80
2023-03-11T19:33:27.690Z,67.10
2023-03-11T19:36:00.484Z,67.40
2023-03-11T19:38:28.786Z,67.60
2023-03-11T19:41:02.918Z,67.70
2023-03-11T19:43:29.984Z,67.90
2023-03-11T19:45:57.092Z,68.20
2023-03-11T19:48:24.503Z,68.20
2023-03-11T19:50:52.050Z,68.40
2023-03-11T19:53:20.533Z,68.40
2023-03-11T19:55:50.158Z,68.40
2023-03-11T19:58:17.227Z,68.80
2023-03-11T20:00:44.683Z,69.10
2023-03-11T20:03:12.722Z,69.30
2023-03-11T20:05:41.415Z,69.30
2023-03-11T20:08:09.646Z,69.60
2023-03-11T20:10:42.998Z,69.80
2023-03-11T20:13:10.029Z,69.90
2023-03-11T20:15:37.275Z,70.10
2023-03-11T20:18:05.571Z,70.20
2023-03-11T20:20:33.384Z,70.20
2023-03-11T20:23:01.861Z,70.40
2023-03-11T20:25:32.251Z,70.40
2023-03-11T20:27:59.827Z,70.60
2023-03-11T20:30:27.145Z,70.60
2023-03-11T20:32:54.344Z,70.70
2023-03-11T20:35:22.068Z,70.80
2023-03-11T20:37:48.867Z,70.60
2023-03-11T20:40:17.045Z,70.80
2023-03-11T20:42:46.701Z,71.10
2023-03-11T20:45:21.507Z,71.30
2023-03-11T20:47:53.669Z,71.40
2023-03-11T20:50:21.404Z,71.40
2023-03-11T20:52:48.083Z,71.40
2023-03-11T20:55:14.846Z,71.40
2023-03-11T20:57:41.764Z,71.40
2023-03-11T21:00:11.732Z,71.70
2023-03-11T21:02:43.029Z,72.00
2023-03-11T21:05:11.103Z,72.20
2023-03-11T21:07:38.460Z,72.40
2023-03-11T21:10:07.462Z,72.40
2023-03-11T21:12:34.205Z,72.40
2023-03-11T21:15:00.923Z,72.50
2023-03-11T21:17:27.649Z,72.50
2023-03-11T21:19:54.307Z,72.50
2023-03-11T21:22:21.072Z,72.70
2023-03-11T21:24:52.519Z,72.80
2023-03-11T21:27:25.750Z,73.10
2023-03-11T21:29:53.473Z,73.20
2023-03-11T21:32:20.690Z,73.30
2023-03-11T21:34:47.796Z,73.30
2023-03-11T21:37:14.947Z,73.40
2023-03-11T21:39:41.656Z,73.40
2023-03-11T21:42:08.404Z,73.40
2023-03-11T21:44:35.200Z,73.40
2023-03-11T21:47:02.001Z,73.50
2023-03-11T21:49:28.953Z,73.80
2023-03-11T21:51:55.673Z,73.70
2023-03-11T21:54:22.468Z,73.60
2023-03-11T21:56:49.280Z,74.00
2023-03-11T21:59:16.098Z,74.10
2023-03-11T22:01:43.139Z,73.80
2023-03-11T22:04:09.970Z,73.70
2023-03-11T22:06:36.854Z,73.60
2023-03-11T22:09:04.391Z,73.80
2023-03-11T22:11:31.389Z,74.20
2023-03-11T22:14:00.553Z,74.10
2023-03-11T22:16:27.608Z,74.20
2023-03-11T22:18:54.401Z,74.40
2023-03-11T22:21:21.399Z,74.60
2023-03-11T22:23:48.486Z,74.60
2023-03-11T22:26:15.871Z,74.70
2023-03-11T22:28:42.747Z,74.80
2023-03-11T22:31:12.052Z,74.90
2023-03-11T22:33:38.811Z,75.10
2023-03-11T22:36:06.334Z,75.10
2023-03-11T22:38:34.077Z,75.10
2023-03-11T22:41:00.869Z,75.20
2023-03-11T22:43:27.597Z,75.40
2023-03-11T22:45:54.400Z,75.60
2023-03-11T22:48:22.041Z,75.70
2023-03-11T22:50:48.688Z,75.60
2023-03-11T22:53:15.621Z,75.70
2023-03-11T22:55:45.395Z,75.70
2023-03-11T22:58:12.605Z,75.70
2023-03-11T23:00:39.763Z,75.70
2023-03-11T23:03:06.546Z,75.80
2023-03-11T23:05:40.619Z,75.80
2023-03-11T23:08:08.748Z,76.00
2023-03-11T23:10:35.438Z,76.00
2023-03-11T23:13:02.205Z,76.20
2023-03-11T23:15:29.114Z,76.50
2023-03-11T23:17:55.851Z,76.30
2023-03-11T23:20:22.636Z,76.40
2023-03-11T23:22:49.325Z,76.40
2023-03-11T23:25:17.249Z,76.40
2023-03-11T23:27:45.440Z,76.30
2023-03-11T23:30:15.023Z,76.50
2023-03-11T23:32:41.912Z,76.70
2023-03-11T23:35:09.012Z,76.80
2023-03-11T23:37:35.662Z,76.90
2023-03-11T23:40:02.753Z,76.80
2023-03-11T23:42:31.858Z,77.00
2023-03-11T23:44:58.603Z,77.00
2023-03-11T23:47:25.248Z,77.10
2023-03-11T23:49:51.891Z,77.10
2023-03-11T23:52:18.543Z,77.00
2023-03-11T23:54:45.160Z,77.80
2023-03-11T23:57:11.759Z,77.00
2023-03-11T23:59:38.362Z,77.00
